Time;durP1;ratioP1;P1;durP2;ratioP2;P2;SDS_P1;SDS_P2;PMS_P1;PMS_P2;Temp;Humidity;BMP_temperature;BMP_pressure;BME280_temperature;BME280_humidity;BME280_pressure;Samples;Min_cycle;Max_cycle;Signal;HPM_P1;HPM_P2
2023/01/08 00:02:11;;;;;;;4.60;2.45;;;10.10;99.90;;;;;;4952188;29;20059;-65
2023/01/08 00:04:37;;;;;;;4.85;3.03;;;10.10;99.90;;;;;;4952161;29;20193;-63
2023/01/08 00:07:03;;;;;;;3.45;1.90;;;10.00;99.90;;;;;;4935792;29;20533;-64
2023/01/08 00:09:28;;;;;;;4.30;1.88;;;10.10;99.90;;;;;;4952224;29;20407;-65
2023/01/08 00:11:54;;;;;;;4.65;2.30;;;10.20;99.90;;;;;;4952340;29;20481;-63
2023/01/08 00:14:20;;;;;;;3.67;1.90;;;10.10;99.90;;;;;;4935623;29;20054;-63
2023/01/08 00:16:45;;;;;;;3.75;2.20;;;10.10;99.90;;;;;;4951505;29;20366;-65
2023/01/08 00:19:11;;;;;;;2.45;1.73;;;10.10;99.90;;;;;;4932016;29;20149;-65
2023/01/08 00:21:37;;;;;;;3.45;1.85;;;10.00;99.90;;;;;;4932506;29;20485;-62
2023/01/08 00:24:03;;;;;;;4.93;2.10;;;10.00;99.90;;;;;;4935250;29;20507;-63
2023/01/08 00:26:29;;;;;;;4.05;2.03;;;10.00;99.90;;;;;;4950819;28;20047;-64
2023/01/08 00:28:55;;;;;;;4.43;2.08;;;10.00;99.90;;;;;;4967092;28;20051;-63
2023/01/08 00:31:21;;;;;;;3.67;1.92;;;10.00;99.90;;;;;;4946705;29;20043;-63
2023/01/08 00:33:46;;;;;;;3.55;1.90;;;10.00;99.90;;;;;;4935321;29;20106;-64
2023/01/08 00:36:14;;;;;;;3.50;2.00;;;10.00;99.90;;;;;;4946809;28;20067;-64
2023/01/08 00:38:40;;;;;;;3.85;2.40;;;10.00;99.90;;;;;;4951030;29;20058;-63
2023/01/08 00:41:06;;;;;;;4.50;2.17;;;10.00;99.90;;;;;;4951198;29;20051;-69
2023/01/08 00:43:32;;;;;;;3.85;2.20;;;10.10;99.90;;;;;;4951351;28;20051;-70
2023/01/08 00:45:58;;;;;;;3.78;2.05;;;10.20;99.90;;;;;;4913368;28;20055;-72
2023/01/08 00:48:24;;;;;;;4.82;2.22;;;10.40;99.90;;;;;;4933002;28;20051;-71
2023/01/08 00:50:51;;;;;;;3.38;2.10;;;10.60;99.90;;;;;;4930539;29;20090;-71
2023/01/08 00:53:18;;;;;;;3.20;2.03;;;10.70;99.90;;;;;;4943050;28;20051;-70
2023/01/08 00:55:44;;;;;;;3.22;2.13;;;10.60;99.90;;;;;;4929517;29;20101;-69
2023/01/08 00:58:11;;;;;;;3.13;2.20;;;10.70;99.90;;;;;;4927348;29;20047;-69
2023/01/08 01:00:37;;;;;;;3.50;2.13;;;10.70;99.90;;;;;;4960192;28;20533;-65
2023/01/08 01:03:04;;;;;;;4.35;2.53;;;10.50;99.90;;;;;;4944540;28;20069;-63
2023/01/08 01:05:30;;;;;;;4.88;2.20;;;10.40;99.90;;;;;;4978648;28;20047;-64
2023/01/08 01:07:56;;;;;;;3.08;2.08;;;10.30;99.90;;;;;;4931045;29;20062;-63
2023/01/08 01:10:21;;;;;;;4.57;2.47;;;10.30;99.90;;;;;;4946780;29;20118;-63
2023/01/08 01:12:47;;;;;;;4.57;2.60;;;10.30;99.90;;;;;;4946474;29;20125;-63
2023/01/08 01:15:15;;;;;;;4.50;2.28;;;10.20;99.90;;;;;;4929254;29;20055;-63
2023/01/08 01:17:41;;;;;;;3.60;2.42;;;10.30;99.90;;;;;;4931614;29;20054;-64
2023/01/08 01:20:08;;;;;;;7.05;3.70;;;10.20;99.90;;;;;;4933491;28;20097;-66
2023/01/08 01:22:34;;;;;;;5.45;2.67;;;10.20;99.90;;;;;;4946799;28;20051;-63
2023/01/08 01:25:00;;;;;;;5.70;2.78;;;10.20;99.90;;;;;;4931061;29;20089;-64
2023/01/08 01:27:26;;;;;;;3.13;2.22;;;10.20;99.90;;;;;;4948184;29;20066;-64
2023/01/08 01:29:52;;;;;;;6.30;2.40;;;10.20;99.90;;;;;;4963908;28;20441;-64
2023/01/08 01:32:18;;;;;;;4.40;2.40;;;10.20;99.90;;;;;;4956060;28;20085;-64
2023/01/08 01:34:44;;;;;;;4.95;2.50;;;10.20;99.90;;;;;;4962175;28;20070;-64
2023/01/08 01:37:11;;;;;;;4.05;2.13;;;10.20;99.90;;;;;;4949012;28;20050;-64
2023/01/08 01:39:38;;;;;;;3.55;2.28;;;10.20;99.90;;;;;;4945916;28;20750;-64
2023/01/08 01:42:04;;;;;;;3.20;2.33;;;10.10;99.90;;;;;;4946532;29;20389;-64
2023/01/08 01:44:45;;;;;;;4.20;2.45;;;10.10;99.90;;;;;;4946618;29;20051;-67
2023/01/08 01:47:31;;;;;;;3.30;2.17;;;10.10;99.90;;;;;;4929501;29;20106;-64
2023/01/08 01:50:09;;;;;;;4.00;2.63;;;10.10;99.90;;;;;;4947083;29;20062;-64
2023/01/08 01:52:37;;;;;;;3.88;2.58;;;10.10;99.90;;;;;;4932312;29;20067;-64
2023/01/08 01:55:03;;;;;;;3.40;2.20;;;10.10;99.90;;;;;;4946550;28;20047;-65
2023/01/08 01:57:29;;;;;;;5.72;2.53;;;10.10;99.90;;;;;;4950606;28;20061;-64
2023/01/08 01:59:55;;;;;;;4.25;2.53;;;10.20;99.90;;;;;;4934644;28;20055;-64
2023/01/08 02:02:21;;;;;;;5.65;2.45;;;10.20;99.90;;;;;;4929246;29;20454;-66
2023/01/08 02:04:46;;;;;;;4.85;2.45;;;10.10;99.90;;;;;;4951572;29;20050;-65
2023/01/08 02:07:17;;;;;;;4.10;2.40;;;10.10;99.90;;;;;;4936715;28;20050;-64
2023/01/08 02:09:49;;;;;;;4.63;2.58;;;10.10;99.90;;;;;;4952515;29;20564;-64
2023/01/08 02:12:40;;;;;;;5.88;2.60;;;10.10;99.90;;;;;;4952217;28;20047;-63
2023/01/08 02:15:30;;;;;;;6.65;3.00;;;10.10;99.90;;;;;;4951124;28;20469;-65
2023/01/08 02:17:59;;;;;;;3.28;2.40;;;10.10;99.90;;;;;;4934337;29;20346;-64
2023/01/08 02:20:28;;;;;;;;;;;10.10;99.90;;;;;;4945718;29;20046;-64
2023/01/08 02:23:24;;;;;;;4.72;2.40;;;10.10;99.90;;;;;;4951331;29;19926;-64
2023/01/08 02:26:16;;;;;;;5.18;2.58;;;10.10;99.90;;;;;;4949713;28;20047;-64
2023/01/08 02:29:07;;;;;;;3.25;2.13;;;10.10;99.90;;;;;;4960349;28;20519;-64
2023/01/08 02:31:33;;;;;;;3.90;2.40;;;10.10;99.90;;;;;;4967805;28;20050;-64
2023/01/08 02:33:59;;;;;;;4.05;2.55;;;10.10;99.90;;;;;;4950599;29;20047;-64
2023/01/08 02:36:37;;;;;;;5.72;2.63;;;10.10;99.90;;;;;;4951710;29;20454;-64
2023/01/08 02:39:11;;;;;;;3.78;1.80;;;10.10;99.90;;;;;;4949462;29;20046;-64
2023/01/08 02:41:55;;;;;;;3.85;2.35;;;10.00;99.90;;;;;;4965814;28;20039;-64
2023/01/08 02:44:42;;;;;;;5.50;2.85;;;10.00;99.90;;;;;;4950862;29;20043;-64
2023/01/08 02:47:11;;;;;;;4.57;2.83;;;10.00;99.90;;;;;;4950465;29;20050;-63
2023/01/08 02:49:38;;;;;;;3.78;2.47;;;10.00;99.90;;;;;;4949393;28;20137;-64
2023/01/08 02:52:03;;;;;;;3.90;2.35;;;10.00;99.90;;;;;;4949525;28;20050;-65
2023/01/08 02:54:33;;;;;;;4.35;2.60;;;10.10;99.90;;;;;;4948985;28;20126;-64
2023/01/08 02:57:09;;;;;;;3.90;2.50;;;10.10;99.90;;;;;;4949545;28;20102;-65
2023/01/08 02:59:34;;;;;;;5.53;2.92;;;10.10;99.90;;;;;;4949781;29;20077;-64
2023/01/08 03:02:02;;;;;;;5.35;2.58;;;10.10;99.90;;;;;;4948405;28;20481;-64
2023/01/08 03:04:27;;;;;;;3.75;2.33;;;10.10;99.90;;;;;;4945987;28;20051;-65
2023/01/08 03:06:53;;;;;;;4.75;2.58;;;10.10;99.90;;;;;;4931685;29;20587;-64
2023/01/08 03:09:19;;;;;;;5.95;2.80;;;10.10;99.90;;;;;;4932910;29;20134;-64
2023/01/08 03:11:54;;;;;;;4.20;2.28;;;10.10;99.90;;;;;;4944950;29;20039;-64
2023/01/08 03:14:35;;;;;;;6.80;2.63;;;10.10;99.90;;;;;;4948496;29;20047;-64
2023/01/08 03:17:13;;;;;;;4.75;2.78;;;10.20;99.90;;;;;;4934179;29;20074;-64
2023/01/08 03:19:51;;;;;;;3.63;2.55;;;10.20;99.90;;;;;;4949498;28;20055;-65
2023/01/08 03:22:17;;;;;;;4.75;2.47;;;10.20;99.90;;;;;;4933638;29;20139;-63
2023/01/08 03:24:44;;;;;;;5.05;3.00;;;10.20;99.90;;;;;;4947645;28;20129;-64
2023/01/08 03:27:15;;;;;;;4.47;3.00;;;10.20;99.90;;;;;;4932674;29;20053;-64
2023/01/08 03:29:44;;;;;;;5.68;2.60;;;10.20;99.90;;;;;;4932278;28;20493;-63
2023/01/08 03:32:14;;;;;;;4.28;2.58;;;10.20;99.90;;;;;;4949259;29;20058;-63
2023/01/08 03:34:41;;;;;;;4.35;2.67;;;10.20;99.90;;;;;;4933356;29;20040;-63
2023/01/08 03:37:07;;;;;;;3.75;2.40;;;10.20;99.90;;;;;;4916698;29;20043;-64
2023/01/08 03:39:57;;;;;;;4.63;2.67;;;10.20;99.90;;;;;;4945622;29;20051;-63
2023/01/08 03:42:22;;;;;;;6.68;2.92;;;10.20;99.90;;;;;;4944462;28;20109;-63
2023/01/08 03:44:48;;;;;;;5.93;2.63;;;10.20;99.90;;;;;;4922219;29;20039;-63
2023/01/08 03:47:14;;;;;;;4.13;2.70;;;10.20;99.90;;;;;;4964469;28;20146;-64
2023/01/08 03:49:40;;;;;;;4.47;2.72;;;10.20;99.90;;;;;;4948684;29;20130;-63
2023/01/08 03:52:05;;;;;;;4.75;2.83;;;10.20;99.90;;;;;;4948970;28;20066;-64
2023/01/08 03:54:33;;;;;;;4.35;2.50;;;10.20;99.90;;;;;;4948411;29;20125;-64
2023/01/08 03:56:58;;;;;;;5.28;2.78;;;10.20;99.90;;;;;;4929701;29;20047;-64
2023/01/08 03:59:25;;;;;;;5.65;2.92;;;10.20;99.90;;;;;;4949152;29;20101;-64
2023/01/08 04:01:50;;;;;;;4.63;2.50;;;10.30;99.90;;;;;;4932107;29;20146;-64
2023/01/08 04:04:16;;;;;;;5.13;3.08;;;10.20;99.90;;;;;;4932242;29;20109;-63
2023/01/08 04:06:42;;;;;;;3.92;2.70;;;10.20;99.90;;;;;;4932235;29;20066;-63
2023/01/08 04:09:08;;;;;;;4.80;2.60;;;10.20;99.90;;;;;;4949141;28;20046;-63
2023/01/08 04:11:33;;;;;;;3.63;2.38;;;10.30;99.90;;;;;;4948145;29;20058;-63
2023/01/08 04:13:59;;;;;;;4.00;2.70;;;10.30;99.90;;;;;;4947476;29;20515;-64
2023/01/08 04:16:25;;;;;;;4.63;2.80;;;10.30;99.90;;;;;;4964353;28;20074;-64
2023/01/08 04:18:51;;;;;;;3.70;2.30;;;10.30;99.90;;;;;;4947584;28;20089;-64
2023/01/08 04:21:16;;;;;;;4.45;2.92;;;10.30;99.90;;;;;;4946055;29;20157;-63
2023/01/08 04:23:42;;;;;;;4.10;2.60;;;10.30;99.90;;;;;;4942774;28;20047;-63
2023/01/08 04:26:08;;;;;;;4.63;2.95;;;10.30;99.90;;;;;;4947675;28;20077;-64
2023/01/08 04:28:34;;;;;;;6.38;2.78;;;10.40;99.90;;;;;;4932539;29;20106;-63
2023/01/08 04:31:05;;;;;;;4.50;2.70;;;10.30;99.90;;;;;;4948770;28;20073;-64
2023/01/08 04:33:30;;;;;;;4.55;2.60;;;10.30;99.90;;;;;;4947943;28;20054;-63
2023/01/08 04:35:56;;;;;;;3.72;2.45;;;10.40;99.90;;;;;;4947977;28;20238;-64
2023/01/08 04:38:22;;;;;;;5.35;2.70;;;10.30;99.90;;;;;;4947680;28;20082;-63
2023/01/08 04:40:47;;;;;;;3.50;2.45;;;10.30;99.90;;;;;;4937192;29;20051;-64
2023/01/08 04:43:13;;;;;;;4.72;2.92;;;10.30;99.90;;;;;;4948123;28;20066;-64
2023/01/08 04:45:39;;;;;;;5.32;2.75;;;10.30;99.90;;;;;;4947466;28;20093;-65
2023/01/08 04:48:05;;;;;;;3.97;2.65;;;10.30;99.90;;;;;;4953303;28;20578;-64
2023/01/08 04:50:31;;;;;;;3.80;2.50;;;10.30;99.90;;;;;;4928922;29;20051;-64
2023/01/08 04:52:58;;;;;;;4.82;2.65;;;10.30;99.90;;;;;;4963238;28;20058;-64
2023/01/08 04:55:23;;;;;;;5.25;2.80;;;10.20;99.90;;;;;;4947529;28;20039;-63
2023/01/08 04:57:49;;;;;;;4.15;2.88;;;10.30;99.90;;;;;;4931913;29;20058;-63
2023/01/08 05:00:15;;;;;;;5.65;3.10;;;10.20;99.90;;;;;;4945154;29;20059;-64
2023/01/08 05:02:41;;;;;;;4.15;2.55;;;10.20;99.90;;;;;;4947718;28;20047;-64
2023/01/08 05:05:07;;;;;;;5.32;2.45;;;10.20;99.90;;;;;;4949309;28;20113;-64
2023/01/08 05:07:33;;;;;;;5.63;2.72;;;10.20;99.90;;;;;;4946710;28;20055;-64
2023/01/08 05:09:58;;;;;;;3.47;2.40;;;10.20;99.90;;;;;;4947366;29;20543;-63
2023/01/08 05:12:24;;;;;;;3.83;2.50;;;10.20;99.90;;;;;;4927006;29;20219;-64
2023/01/08 05:14:50;;;;;;;4.80;2.58;;;10.20;99.90;;;;;;4947220;28;20377;-63
2023/01/08 05:17:16;;;;;;;4.25;2.30;;;10.30;99.90;;;;;;4928124;29;20421;-63
2023/01/08 05:19:42;;;;;;;3.60;2.47;;;10.30;99.90;;;;;;4946250;29;20049;-64
2023/01/08 05:22:07;;;;;;;6.55;2.38;;;10.30;99.90;;;;;;4948134;28;20047;-63
2023/01/08 05:24:33;;;;;;;3.90;2.20;;;10.30;99.90;;;;;;4931686;29;20039;-63
2023/01/08 05:26:59;;;;;;;5.07;2.63;;;10.30;99.90;;;;;;4919852;29;20051;-63
2023/01/08 05:29:25;;;;;;;4.05;2.30;;;10.30;99.90;;;;;;4946590;28;20155;-63
2023/01/08 05:31:56;;;;;;;4.72;2.95;;;10.40;99.90;;;;;;4947978;28;20138;-63
2023/01/08 05:34:22;;;;;;;3.67;2.25;;;10.30;99.90;;;;;;4948359;28;20074;-63
2023/01/08 05:36:48;;;;;;;4.28;2.25;;;10.30;99.90;;;;;;4962665;28;20053;-63
2023/01/08 05:39:14;;;;;;;3.30;2.17;;;10.30;99.90;;;;;;4947216;28;20058;-63
2023/01/08 05:41:40;;;;;;;3.60;2.20;;;10.30;99.90;;;;;;4930441;29;20500;-63
2023/01/08 05:44:05;;;;;;;3.90;2.47;;;10.30;99.90;;;;;;4927890;29;20051;-63
2023/01/08 05:46:31;;;;;;;3.00;2.10;;;10.30;99.90;;;;;;4944446;28;20050;-63
2023/01/08 05:48:57;;;;;;;4.30;2.25;;;10.30;99.90;;;;;;4946548;29;20094;-64
2023/01/08 05:51:23;;;;;;;5.13;2.67;;;10.30;99.90;;;;;;4946260;29;20086;-63
2023/01/08 05:53:48;;;;;;;4.25;2.35;;;10.20;99.90;;;;;;4931708;28;20044;-63
2023/01/08 05:56:14;;;;;;;4.35;2.85;;;10.30;99.90;;;;;;4945391;28;20425;-64
2023/01/08 05:58:40;;;;;;;3.90;2.05;;;10.20;99.90;;;;;;4944016;29;20150;-64
2023/01/08 06:01:12;;;;;;;3.95;2.17;;;10.20;99.90;;;;;;4960896;28;20067;-64
2023/01/08 06:03:38;;;;;;;6.13;2.33;;;10.20;99.90;;;;;;4931032;29;20047;-63
2023/01/08 06:06:05;;;;;;;3.80;2.40;;;10.20;99.90;;;;;;4946617;29;20726;-63
2023/01/08 06:08:30;;;;;;;5.50;2.22;;;10.30;99.90;;;;;;4930269;29;20749;-63
2023/01/08 06:11:04;;;;;;;5.70;2.13;;;10.30;99.90;;;;;;4929722;29;20055;-63
2023/01/08 06:13:30;;;;;;;3.10;1.85;;;10.20;99.90;;;;;;4930492;29;20058;-63
2023/01/08 06:15:58;;;;;;;5.82;2.40;;;10.30;99.90;;;;;;4929827;29;20048;-63
2023/01/08 06:18:23;;;;;;;3.92;2.13;;;10.30;99.90;;;;;;4947152;28;20191;-64
2023/01/08 06:20:49;;;;;;;3.15;2.00;;;10.30;99.90;;;;;;4946898;28;20154;-64
2023/01/08 06:23:16;;;;;;;4.32;2.33;;;10.30;99.90;;;;;;4944555;29;20477;-63
2023/01/08 06:25:42;;;;;;;4.53;2.80;;;10.30;99.90;;;;;;4947223;28;20770;-63
2023/01/08 06:28:08;;;;;;;4.32;2.20;;;10.30;99.90;;;;;;4943946;28;20055;-63
2023/01/08 06:30:33;;;;;;;3.45;2.38;;;10.30;99.90;;;;;;4948777;28;20046;-63
2023/01/08 06:33:00;;;;;;;3.33;2.03;;;10.40;99.90;;;;;;4940627;28;20066;-64
2023/01/08 06:35:26;;;;;;;3.53;2.28;;;10.30;99.90;;;;;;4968094;28;20043;-64
2023/01/08 06:37:54;;;;;;;4.22;2.13;;;10.30;99.90;;;;;;4929730;29;20086;-64
2023/01/08 06:40:22;;;;;;;3.67;2.10;;;10.20;99.90;;;;;;4957851;28;20424;-63
2023/01/08 06:42:48;;;;;;;3.22;2.10;;;10.20;99.90;;;;;;4948875;28;20448;-64
2023/01/08 06:45:14;;;;;;;4.97;3.28;;;10.10;99.90;;;;;;4931658;29;20051;-63
2023/01/08 06:47:39;;;;;;;5.30;2.60;;;10.00;99.90;;;;;;4950628;28;20441;-62
2023/01/08 06:50:07;;;;;;;4.07;2.50;;;10.00;99.90;;;;;;4948509;29;20078;-63
2023/01/08 06:52:32;;;;;;;4.13;2.38;;;9.90;99.90;;;;;;4947424;29;20124;-65
2023/01/08 06:54:58;;;;;;;4.65;2.53;;;9.80;99.90;;;;;;4949803;29;20617;-64
2023/01/08 06:57:24;;;;;;;3.50;2.03;;;9.70;99.90;;;;;;4965812;28;20036;-64
2023/01/08 06:59:50;;;;;;;4.72;2.83;;;9.70;99.90;;;;;;4959185;28;20055;-63
2023/01/08 07:02:16;;;;;;;4.20;2.30;;;9.60;99.90;;;;;;4945813;28;20083;-63
2023/01/08 07:04:42;;;;;;;5.13;2.63;;;9.60;99.90;;;;;;4946929;28;20047;-65
2023/01/08 07:07:13;;;;;;;4.95;2.65;;;9.50;99.90;;;;;;4962674;28;20059;-63
2023/01/08 07:09:40;;;;;;;5.63;2.90;;;9.50;99.90;;;;;;4949140;29;20134;-63
2023/01/08 07:12:07;;;;;;;4.40;2.88;;;9.50;99.90;;;;;;4932416;29;20053;-63
2023/01/08 07:14:33;;;;;;;5.90;2.85;;;9.50;99.90;;;;;;4949009;29;20066;-63
2023/01/08 07:16:59;;;;;;;5.25;2.72;;;9.50;99.90;;;;;;4964691;28;20047;-63
2023/01/08 07:19:25;;;;;;;5.15;2.90;;;9.50;99.90;;;;;;4932832;29;20058;-63
2023/01/08 07:21:51;;;;;;;4.45;2.60;;;9.50;99.90;;;;;;4949778;28;20086;-63
2023/01/08 07:24:16;;;;;;;4.75;2.60;;;9.50;99.90;;;;;;4965475;28;20123;-63
2023/01/08 07:26:42;;;;;;;5.18;2.75;;;9.50;99.90;;;;;;4932635;28;20537;-63
2023/01/08 07:29:08;;;;;;;4.97;2.67;;;9.50;99.90;;;;;;4948796;28;20066;-63
2023/01/08 07:31:33;;;;;;;4.38;2.38;;;9.50;99.90;;;;;;4931749;28;20487;-63
2023/01/08 07:33:59;;;;;;;4.78;2.80;;;9.60;99.90;;;;;;4949019;28;20525;-65
2023/01/08 07:36:25;;;;;;;5.35;2.30;;;9.50;99.90;;;;;;4948546;29;20049;-65
2023/01/08 07:38:51;;;;;;;5.15;2.88;;;9.50;99.90;;;;;;4949723;28;20047;-64
2023/01/08 07:41:16;;;;;;;4.60;3.00;;;9.30;99.90;;;;;;4950971;28;20050;-63
2023/01/08 07:43:42;;;;;;;4.45;2.90;;;9.40;99.90;;;;;;4949285;28;20105;-65
2023/01/08 07:46:08;;;;;;;6.00;2.75;;;9.30;99.90;;;;;;4932271;29;20054;-65
2023/01/08 07:48:34;;;;;;;5.95;3.22;;;9.30;99.90;;;;;;4948297;28;20167;-63
2023/01/08 07:51:04;;;;;;;4.30;2.63;;;9.30;99.90;;;;;;4931991;28;20128;-65
2023/01/08 07:53:29;;;;;;;7.05;3.15;;;9.30;99.90;;;;;;4913514;29;20051;-68
2023/01/08 07:56:02;;;;;;;3.95;2.70;;;9.20;99.90;;;;;;4964473;28;20046;-68
2023/01/08 07:58:28;;;;;;;4.40;3.03;;;9.30;99.90;;;;;;4948520;28;20089;-69
2023/01/08 08:00:54;;;;;;;6.00;3.08;;;9.30;99.90;;;;;;4945454;29;20689;-68
2023/01/08 08:03:20;;;;;;;5.55;3.70;;;9.20;99.90;;;;;;4947957;28;20062;-67
2023/01/08 08:05:46;;;;;;;5.35;3.28;;;9.20;99.90;;;;;;4981004;28;20046;-68
2023/01/08 08:08:12;;;;;;;5.20;3.03;;;9.20;99.90;;;;;;4964267;28;20038;-68
2023/01/08 08:10:38;;;;;;;6.45;3.35;;;9.10;99.90;;;;;;4932764;29;20082;-68
2023/01/08 08:13:05;;;;;;;5.15;3.42;;;9.20;99.90;;;;;;4947602;29;20141;-69
2023/01/08 08:15:32;;;;;;;5.45;3.20;;;9.10;99.90;;;;;;4948811;29;20062;-68
2023/01/08 08:17:57;;;;;;;5.78;3.40;;;9.10;99.90;;;;;;4947386;29;20039;-69
2023/01/08 08:20:24;;;;;;;4.18;2.83;;;9.10;99.90;;;;;;4949057;28;20113;-69
2023/01/08 08:22:49;;;;;;;4.03;3.05;;;9.10;99.90;;;;;;4948027;29;20062;-68
2023/01/08 08:25:15;;;;;;;6.93;3.40;;;9.00;99.90;;;;;;4932080;29;20055;-69
2023/01/08 08:27:41;;;;;;;5.28;3.92;;;9.10;99.90;;;;;;4947343;28;20046;-71
2023/01/08 08:30:08;;;;;;;6.30;2.90;;;9.00;99.90;;;;;;4963318;28;20090;-67
2023/01/08 08:32:34;;;;;;;5.22;3.40;;;9.00;99.90;;;;;;4931446;29;20043;-64
2023/01/08 08:35:00;;;;;;;5.32;3.58;;;9.10;99.90;;;;;;4932582;29;20051;-63
2023/01/08 08:37:25;;;;;;;4.32;3.00;;;9.10;99.90;;;;;;4931272;29;20113;-63
2023/01/08 08:39:51;;;;;;;4.32;3.28;;;9.10;99.90;;;;;;4946445;28;20138;-64
2023/01/08 08:42:17;;;;;;;5.30;3.35;;;9.00;99.90;;;;;;4947633;29;20050;-64
2023/01/08 08:44:46;;;;;;;4.97;3.10;;;9.10;99.90;;;;;;4947878;29;20051;-64
2023/01/08 08:47:12;;;;;;;5.88;3.05;;;9.10;99.90;;;;;;4933662;29;20078;-64
2023/01/08 08:49:38;;;;;;;4.65;3.30;;;9.10;99.90;;;;;;4948874;29;20082;-64
2023/01/08 08:52:04;;;;;;;4.80;3.30;;;9.00;99.90;;;;;;4950677;28;20043;-63
2023/01/08 08:54:30;;;;;;;5.00;3.15;;;9.00;99.90;;;;;;4950845;28;20039;-63
2023/01/08 08:56:56;;;;;;;4.90;3.00;;;9.10;99.90;;;;;;4933297;29;20128;-66
2023/01/08 08:59:22;;;;;;;3.97;2.70;;;9.00;99.90;;;;;;4947633;28;20047;-64
2023/01/08 09:01:47;;;;;;;5.13;2.63;;;9.10;99.90;;;;;;4929084;29;20059;-64
2023/01/08 09:04:13;;;;;;;4.20;2.90;;;9.00;99.90;;;;;;4931561;29;20090;-66
2023/01/08 09:06:39;;;;;;;7.15;3.00;;;9.10;99.90;;;;;;4946455;28;20051;-65
2023/01/08 09:09:06;;;;;;;4.90;3.40;;;9.00;99.90;;;;;;4946814;29;20110;-65
2023/01/08 09:11:32;;;;;;;4.43;3.13;;;9.00;99.90;;;;;;4931530;29;20434;-64
2023/01/08 09:13:57;;;;;;;4.70;2.95;;;9.00;99.90;;;;;;4946762;29;20047;-67
2023/01/08 09:16:23;;;;;;;5.13;3.25;;;9.10;99.90;;;;;;4946727;29;20047;-67
2023/01/08 09:18:49;;;;;;;4.22;2.67;;;9.10;99.90;;;;;;4930670;28;20057;-66
2023/01/08 09:21:14;;;;;;;5.22;3.13;;;9.20;99.90;;;;;;4931605;28;20134;-65
2023/01/08 09:23:43;;;;;;;7.07;3.60;;;9.10;99.90;;;;;;4946692;29;20525;-66
2023/01/08 09:26:09;;;;;;;6.03;3.75;;;9.10;99.90;;;;;;4962696;28;20269;-67
2023/01/08 09:28:35;;;;;;;5.57;3.78;;;9.10;99.90;;;;;;4946760;28;20047;-67
2023/01/08 09:31:04;;;;;;;6.90;3.80;;;9.10;99.90;;;;;;4979120;28;20122;-68
2023/01/08 09:33:29;;;;;;;7.53;3.83;;;9.10;99.90;;;;;;4947072;28;20483;-68
2023/01/08 09:35:55;;;;;;;6.85;3.80;;;9.10;99.90;;;;;;4946305;29;20047;-69
2023/01/08 09:38:21;;;;;;;6.45;4.05;;;9.10;99.90;;;;;;4946605;29;20047;-68
2023/01/08 09:41:03;;;;;;;5.40;3.60;;;9.10;99.90;;;;;;4947400;28;20051;-68
2023/01/08 09:43:31;;;;;;;6.28;4.15;;;9.20;99.90;;;;;;4931795;29;20549;-66
2023/01/08 09:45:58;;;;;;;5.47;3.72;;;9.10;99.90;;;;;;4947007;29;20109;-67
2023/01/08 09:48:29;;;;;;;4.85;3.50;;;9.10;99.90;;;;;;4931691;29;20497;-67
2023/01/08 09:50:55;;;;;;;6.25;3.25;;;9.20;99.90;;;;;;4946979;28;20047;-67
2023/01/08 09:53:21;;;;;;;6.40;3.97;;;9.20;99.90;;;;;;4930955;29;20099;-67
2023/01/08 09:56:08;;;;;;;4.72;3.25;;;9.20;99.90;;;;;;4946445;29;20039;-68
2023/01/08 09:58:40;;;;;;;4.88;3.50;;;9.30;99.90;;;;;;4946048;28;20043;-68
2023/01/08 10:01:06;;;;;;;5.30;3.50;;;9.20;99.90;;;;;;4941410;28;20074;-68
2023/01/08 10:04:03;;;;;;;6.32;3.20;;;9.20;99.90;;;;;;4929880;29;20055;-66
2023/01/08 10:06:30;;;;;;;4.65;3.15;;;9.20;99.90;;;;;;4946118;28;20051;-63
2023/01/08 10:08:56;;;;;;;4.93;2.67;;;9.20;99.90;;;;;;4931125;28;20110;-63
2023/01/08 10:11:22;;;;;;;5.72;2.13;;;9.20;99.90;;;;;;4946759;29;20090;-63
2023/01/08 10:13:55;;;;;;;3.28;2.22;;;9.20;99.90;;;;;;4947483;28;20439;-62
2023/01/08 10:16:41;;;;;;;2.42;1.70;;;9.30;99.90;;;;;;4949478;28;20047;-63
2023/01/08 10:19:07;;;;;;;2.55;1.75;;;9.40;99.90;;;;;;4965727;28;20035;-62
2023/01/08 10:21:38;;;;;;;2.17;1.42;;;9.40;99.90;;;;;;4950281;29;20062;-62
2023/01/08 10:24:04;;;;;;;4.97;1.77;;;9.40;99.90;;;;;;4933272;29;20047;-63
2023/01/08 10:26:31;;;;;;;2.58;1.42;;;9.40;99.90;;;;;;4934371;29;20055;-63
2023/01/08 10:29:16;;;;;;;2.53;1.50;;;9.50;99.90;;;;;;4935979;28;20050;-63
2023/01/08 10:31:56;;;;;;;2.55;1.70;;;9.50;99.90;;;;;;4948875;28;20122;-63
2023/01/08 10:34:31;;;;;;;2.80;1.90;;;9.50;99.90;;;;;;4937505;28;20470;-63
2023/01/08 10:37:00;;;;;;;3.65;1.85;;;9.40;99.90;;;;;;4953700;28;20051;-63
2023/01/08 10:39:27;;;;;;;2.88;1.50;;;9.50;99.90;;;;;;4936568;29;20058;-62
2023/01/08 10:41:55;;;;;;;4.45;2.05;;;9.50;99.90;;;;;;4936328;29;20081;-63
2023/01/08 10:44:22;;;;;;;1.98;1.48;;;9.50;99.90;;;;;;4936155;29;20058;-63
2023/01/08 10:46:49;;;;;;;2.28;1.40;;;9.50;99.90;;;;;;4943018;29;20062;-63
2023/01/08 10:49:40;;;;;;;2.40;1.10;;;9.60;99.90;;;;;;4952731;29;20062;-63
2023/01/08 10:52:35;;;;;;;2.00;1.33;;;9.50;99.90;;;;;;4932708;29;20140;-63
2023/01/08 10:55:38;;;;;;;2.10;1.10;;;9.60;99.90;;;;;;4952105;29;20082;-64
2023/01/08 10:58:26;;;;;;;1.95;1.00;;;9.60;99.90;;;;;;4944862;29;20310;-63
2023/01/08 11:00:52;;;;;;;1.80;1.20;;;9.60;99.90;;;;;;4957496;28;20521;-64
2023/01/08 11:03:28;;;;;;;2.90;1.60;;;9.60;99.90;;;;;;4950795;28;20078;-63
2023/01/08 11:05:54;;;;;;;2.92;1.50;;;9.60;99.90;;;;;;4961555;28;20070;-64
2023/01/08 11:08:20;;;;;;;1.80;1.10;;;9.60;99.90;;;;;;4960847;28;20055;-64
2023/01/08 11:10:56;;;;;;;1.98;1.15;;;9.60;99.90;;;;;;4946276;29;20062;-63
2023/01/08 11:13:22;;;;;;;3.22;1.13;;;9.60;99.90;;;;;;4943210;29;20407;-65
2023/01/08 11:16:09;;;;;;;3.17;1.40;;;9.60;99.90;;;;;;4944073;29;20058;-64
2023/01/08 11:18:45;;;;;;;2.25;1.30;;;9.60;99.90;;;;;;4949613;28;20086;-64
2023/01/08 11:21:37;;;;;;;1.20;0.80;;;9.60;99.90;;;;;;4959322;28;20051;-65
2023/01/08 11:24:19;;;;;;;1.45;1.00;;;9.60;99.90;;;;;;4933794;29;20053;-64
2023/01/08 11:26:51;;;;;;;1.83;1.10;;;9.60;99.90;;;;;;4946956;29;20055;-63
2023/01/08 11:29:21;;;;;;;3.42;1.33;;;9.70;99.90;;;;;;4934260;29;20075;-64
2023/01/08 11:31:53;;;;;;;2.67;1.27;;;9.70;99.90;;;;;;4952495;28;20059;-64
2023/01/08 11:34:42;;;;;;;1.45;0.90;;;9.70;99.90;;;;;;4952421;28;20071;-64
2023/01/08 11:37:15;;;;;;;1.33;1.00;;;9.70;99.90;;;;;;4937473;28;20365;-63
2023/01/08 11:39:41;;;;;;;2.25;1.13;;;9.70;99.90;;;;;;4951709;29;20054;-63
2023/01/08 11:42:27;;;;;;;1.55;1.15;;;9.70;99.90;;;;;;4951878;29;20043;-63
2023/01/08 11:45:11;;;;;;;1.95;1.10;;;9.70;99.90;;;;;;4951676;29;20043;-63
2023/01/08 11:47:42;;;;;;;1.88;1.00;;;9.70;99.90;;;;;;4952402;29;20098;-62
2023/01/08 11:50:21;;;;;;;1.75;1.00;;;9.80;99.90;;;;;;4953287;28;20054;-63
2023/01/08 11:53:02;;;;;;;1.48;1.13;;;9.90;99.90;;;;;;4952239;29;20086;-63
2023/01/08 11:55:33;;;;;;;3.05;1.10;;;9.90;99.90;;;;;;4952700;29;20118;-62
2023/01/08 11:57:59;;;;;;;1.65;1.20;;;9.90;99.90;;;;;;4967541;28;20039;-63
2023/01/08 12:00:43;;;;;;;1.95;1.00;;;9.90;99.90;;;;;;4952660;29;20050;-62
2023/01/08 12:03:22;;;;;;;2.28;1.20;;;9.90;99.90;;;;;;4966733;28;20094;-63
2023/01/08 12:05:54;;;;;;;1.30;1.00;;;9.90;99.90;;;;;;4948610;29;20047;-66
2023/01/08 12:08:39;;;;;;;1.88;1.13;;;9.90;99.90;;;;;;4967800;28;20079;-64
2023/01/08 12:11:13;;;;;;;2.05;1.13;;;10.00;99.90;;;;;;4934342;29;20057;-63
2023/01/08 12:13:51;;;;;;;1.35;0.90;;;10.00;99.90;;;;;;4947464;29;20047;-65
2023/01/08 12:16:32;;;;;;;1.55;1.08;;;10.00;99.90;;;;;;4952199;29;20093;-64
2023/01/08 12:19:13;;;;;;;1.25;0.90;;;10.00;99.90;;;;;;4951767;29;20050;-64
2023/01/08 12:21:57;;;;;;;3.55;1.20;;;10.00;99.90;;;;;;4951588;29;20051;-63
2023/01/08 12:24:41;;;;;;;2.40;1.20;;;10.00;99.90;;;;;;4946800;29;20051;-63
2023/01/08 12:27:32;;;;;;;0.98;0.73;;;10.10;99.90;;;;;;4952511;29;20043;-63
2023/01/08 12:30:23;;;;;;;1.83;1.10;;;10.10;99.90;;;;;;4977108;28;20113;-63
2023/01/08 12:32:50;;;;;;;1.33;1.00;;;10.10;99.90;;;;;;4967401;28;20039;-65
2023/01/08 12:35:19;;;;;;;1.70;1.07;;;10.10;99.90;;;;;;4935912;29;20039;-66
2023/01/08 12:37:51;;;;;;;1.63;0.82;;;10.20;99.90;;;;;;4930802;29;20478;-64
2023/01/08 12:40:20;;;;;;;1.70;1.00;;;10.20;99.90;;;;;;4950625;28;20552;-65
2023/01/08 12:42:48;;;;;;;1.42;0.95;;;10.20;99.90;;;;;;4950950;29;20481;-64
2023/01/08 12:45:36;;;;;;;1.67;1.10;;;10.20;99.90;;;;;;4950878;28;20689;-65
2023/01/08 12:48:18;;;;;;;5.13;2.40;;;10.20;99.90;;;;;;4981705;28;20043;-64
2023/01/08 12:50:58;;;;;;;3.83;1.60;;;10.30;99.90;;;;;;4951017;29;20063;-65
2023/01/08 12:53:31;;;;;;;4.15;1.75;;;10.30;99.90;;;;;;4951965;28;20078;-65
2023/01/08 12:56:15;;;;;;;2.60;1.20;;;10.30;99.90;;;;;;4952643;29;20054;-64
2023/01/08 12:59:03;;;;;;;2.47;1.33;;;10.30;99.90;;;;;;4951059;29;20541;-63
2023/01/08 13:02:01;;;;;;;4.72;1.92;;;10.30;99.90;;;;;;4933337;29;20435;-63
2023/01/08 13:04:27;;;;;;;3.42;1.88;;;10.30;99.90;;;;;;4951333;28;20469;-65